createdAt,value
2019-01-02T00:00:30.420Z,101662.73
2019-01-02T00:02:57.192Z,101670.94
2019-01-02T00:05:23.932Z,101700.38
2019-01-02T00:07:50.721Z,101675.58
2019-01-02T00:10:17.476Z,101688.54
2019-01-02T00:12:44.237Z,101699.69
2019-01-02T00:15:10.996Z,101705.36
2019-01-02T00:17:37.772Z,101701.94
2019-01-02T00:20:06.023Z,101705.23
2019-01-02T00:22:32.896Z,101720.88
2019-01-02T00:24:59.628Z,101723.30
2019-01-02T00:27:26.704Z,101719.58
2019-01-02T00:29:53.472Z,101722.34
2019-01-02T00:32:20.236Z,101725.68
2019-01-02T00:34:46.977Z,101733.95
2019-01-02T00:37:13.748Z,101732.43
2019-01-02T00:39:40.502Z,101741.73
2019-01-02T00:42:07.249Z,101740.32
2019-01-02T00:44:34.023Z,101727.30
2019-01-02T00:47:00.761Z,101744.08
2019-01-02T00:49:27.551Z,101737.66
2019-01-02T00:51:54.309Z,101734.94
2019-01-02T00:54:21.076Z,101743.02
2019-01-02T00:56:47.862Z,101742.52
2019-01-02T00:59:14.632Z,101753.73
2019-01-02T01:01:41.368Z,101756.13
2019-01-02T01:04:08.146Z,101753.94
2019-01-02T01:06:34.917Z,101758.03
2019-01-02T01:09:01.680Z,101772.16
2019-01-02T01:11:28.433Z,101758.98
2019-01-02T01:13:55.220Z,101761.48
2019-01-02T01:16:22.109Z,101753.89
2019-01-02T01:18:48.896Z,101759.39
2019-01-02T01:21:15.680Z,101760.65
2019-01-02T01:23:42.436Z,101767.20
2019-01-02T01:26:09.192Z,101753.14
2019-01-02T01:28:35.956Z,101773.64
2019-01-02T01:31:02.712Z,101772.89
2019-01-02T01:33:29.469Z,101770.05
2019-01-02T01:35:56.232Z,101758.48
2019-01-02T01:38:23.011Z,101748.40
2019-01-02T01:40:49.773Z,101758.73
2019-01-02T01:43:16.532Z,101756.78
2019-01-02T01:45:43.296Z,101746.78
2019-01-02T01:48:10.051Z,101748.23
2019-01-02T01:50:36.793Z,101752.74
2019-01-02T01:53:03.558Z,101748.87
2019-01-02T01:55:30.296Z,101739.78
2019-01-02T01:57:57.076Z,101738.34
2019-01-02T02:00:23.815Z,101743.50
2019-01-02T02:02:50.655Z,101738.91
2019-01-02T02:05:17.400Z,101732.78
2019-01-02T02:07:44.168Z,101735.28
2019-01-02T02:10:12.554Z,101745.63
2019-01-02T02:12:39.320Z,101749.99
2019-01-02T02:15:07.176Z,101744.45
2019-01-02T02:17:33.926Z,101746.58
2019-01-02T02:20:00.700Z,101756.43
2019-01-02T02:22:27.460Z,101767.91
2019-01-02T02:24:54.233Z,101769.80
2019-01-02T02:27:20.988Z,101771.69
2019-01-02T02:29:47.759Z,101772.02
2019-01-02T02:32:14.495Z,101776.29
2019-01-02T02:34:41.261Z,101786.11
2019-01-02T02:37:08.112Z,101798.69
2019-01-02T02:39:34.897Z,101794.23
2019-01-02T02:42:01.628Z,101783.38
2019-01-02T02:44:28.393Z,101792.02
2019-01-02T02:46:55.139Z,101819.09
2019-01-02T02:49:21.894Z,101796.91
2019-01-02T02:51:48.646Z,101793.55
2019-01-02T02:54:15.468Z,101820.66
2019-01-02T02:56:42.217Z,101827.23
2019-01-02T02:59:08.973Z,101815.78
2019-01-02T03:01:35.739Z,101817.38
2019-01-02T03:04:02.526Z,101818.22
2019-01-02T03:06:29.264Z,101818.06
2019-01-02T03:08:56.032Z,101829.03
2019-01-02T03:11:22.780Z,101817.75
2019-01-02T03:13:49.543Z,101811.90
2019-01-02T03:16:16.294Z,101817.92
2019-01-02T03:18:43.068Z,101817.28
2019-01-02T03:21:09.808Z,101805.80
2019-01-02T03:23:36.557Z,101799.50
2019-01-02T03:26:03.297Z,101786.19
2019-01-02T03:28:30.048Z,101802.33
2019-01-02T03:30:56.789Z,101799.05
2019-01-02T03:33:23.556Z,101795.55
2019-01-02T03:35:50.305Z,101800.05
2019-01-02T03:38:17.051Z,101807.91
2019-01-02T03:40:43.817Z,101805.66
2019-01-02T03:43:10.581Z,101802.57
2019-01-02T03:45:37.344Z,101786.57
2019-01-02T03:48:04.092Z,101791.75
2019-01-02T03:50:30.871Z,101800.43
2019-01-02T03:52:57.644Z,101799.38
2019-01-02T03:55:24.409Z,101798.56
2019-01-02T03:57:51.137Z,101800.84
2019-01-02T04:00:19.152Z,101794.67
2019-01-02T04:02:45.912Z,101819.03
2019-01-02T04:05:14.180Z,101818.53
2019-01-02T04:07:43.248Z,101828.03
2019-01-02T04:10:11.449Z,101835.41
2019-01-02T04:12:38.209Z,101827.02
2019-01-02T04:15:05.118Z,101833.73
2019-01-02T04:17:31.839Z,101841.06
2019-01-02T04:19:58.597Z,101845.39
2019-01-02T04:22:25.352Z,101813.12
2019-01-02T04:24:52.109Z,101818.19
2019-01-02T04:27:18.881Z,101810.47
2019-01-02T04:29:45.648Z,101810.93
2019-01-02T04:32:12.389Z,101803.23
2019-01-02T04:34:39.141Z,101812.88
2019-01-02T04:37:05.887Z,101827.77
2019-01-02T04:39:32.652Z,101822.23
2019-01-02T04:41:59.393Z,101825.28
2019-01-02T04:44:26.157Z,101831.38
2019-01-02T04:46:52.896Z,101825.73
2019-01-02T04:49:19.640Z,101827.46
2019-01-02T04:51:46.410Z,101829.52
2019-01-02T04:54:13.132Z,101832.60
2019-01-02T04:56:39.885Z,101819.57
2019-01-02T04:59:06.622Z,101811.33
2019-01-02T05:01:33.384Z,101831.11
2019-01-02T05:04:00.137Z,101834.98
2019-01-02T05:06:26.901Z,101830.47
2019-01-02T05:08:53.648Z,101831.03
2019-01-02T05:11:20.613Z,101821.87
2019-01-02T05:13:47.360Z,101825.78
2019-01-02T05:16:14.108Z,101836.73
2019-01-02T05:18:40.841Z,101851.10
2019-01-02T05:21:07.611Z,101852.32
2019-01-02T05:23:34.348Z,101846.34
2019-01-02T05:26:01.104Z,101848.91
2019-01-02T05:28:27.861Z,101837.17
2019-01-02T05:30:54.632Z,101846.68
2019-01-02T05:33:21.382Z,101846.98
2019-01-02T05:35:48.146Z,101847.30
2019-01-02T05:38:14.909Z,101839.71
2019-01-02T05:40:41.663Z,101847.23
2019-01-02T05:43:08.535Z,101847.63
2019-01-02T05:45:35.300Z,101842.48
2019-01-02T05:48:02.056Z,101834.39
2019-01-02T05:50:28.813Z,101825.70
2019-01-02T05:52:55.569Z,101834.06
2019-01-02T05:55:22.331Z,101824.56
2019-01-02T05:57:49.067Z,101830.09
2019-01-02T06:00:15.812Z,101831.26
2019-01-02T06:02:42.612Z,101831.20
2019-01-02T06:05:09.406Z,101826.36
2019-01-02T06:07:36.173Z,101839.59
2019-01-02T06:10:03.085Z,101833.73
2019-01-02T06:12:29.840Z,101831.70
2019-01-02T06:14:56.573Z,101833.05
2019-01-02T06:17:23.324Z,101832.99
2019-01-02T06:19:50.056Z,101820.59
2019-01-02T06:22:16.967Z,101821.55
2019-01-02T06:24:43.548Z,101834.45
2019-01-02T06:27:10.346Z,101833.05
2019-01-02T06:29:37.160Z,101832.91
2019-01-02T06:32:04.070Z,101838.64
2019-01-02T06:34:30.789Z,101838.25
2019-01-02T06:36:57.543Z,101832.45
2019-01-02T06:39:24.344Z,101835.74
2019-01-02T06:41:51.082Z,101849.24
2019-01-02T06:44:17.835Z,101847.53
2019-01-02T06:46:44.600Z,101855.89
2019-01-02T06:49:11.349Z,101855.62
2019-01-02T06:51:38.101Z,101846.49
2019-01-02T06:54:04.853Z,101859.64
2019-01-02T06:56:31.612Z,101861.74
2019-01-02T06:58:58.356Z,101861.30
2019-01-02T07:01:25.495Z,101875.64
2019-01-02T07:03:52.221Z,101876.70
2019-01-02T07:06:19.023Z,101884.85
2019-01-02T07:08:45.744Z,101885.88
2019-01-02T07:11:12.488Z,101890.44
2019-01-02T07:13:39.260Z,101890.27
2019-01-02T07:16:06.048Z,101891.38
2019-01-02T07:18:32.825Z,101896.59
2019-01-02T07:20:59.579Z,101899.42
2019-01-02T07:23:26.331Z,101896.66
2019-01-02T07:25:53.076Z,101895.88
2019-01-02T07:28:19.830Z,101899.45
2019-01-02T07:30:46.561Z,101900.27
2019-01-02T07:33:13.319Z,101885.27
2019-01-02T07:36:07.164Z,101893.84
2019-01-02T07:38:44.549Z,101902.41
2019-01-02T07:41:24.657Z,101904.37
2019-01-02T07:44:08.193Z,101900.63
2019-01-02T07:47:01.685Z,101905.27
2019-01-02T07:50:09.342Z,101911.26
2019-01-02T07:52:47.652Z,101900.88
2019-01-02T07:55:45.008Z,101899.35
2019-01-02T07:58:25.268Z,101899.60
2019-01-02T08:01:25.380Z,101902.95
2019-01-02T08:04:07.288Z,101893.00
2019-01-02T08:06:54.214Z,101894.53
2019-01-02T08:09:36.911Z,101903.52
2019-01-02T08:12:21.773Z,101897.64
2019-01-02T08:15:07.690Z,101906.81
2019-01-02T08:17:44.860Z,101908.82
2019-01-02T08:20:45.477Z,101926.69
2019-01-02T08:23:34.760Z,101915.69
2019-01-02T08:26:33.035Z,101928.39
2019-01-02T08:29:27.144Z,101922.73
2019-01-02T08:32:14.784Z,101931.00
2019-01-02T08:34:59.925Z,101937.88
2019-01-02T08:37:36.506Z,101944.27
2019-01-02T08:40:14.865Z,101953.27
2019-01-02T08:42:57.405Z,101955.33
2019-01-02T08:45:58.577Z,101962.50
2019-01-02T08:48:43.829Z,101955.85
2019-01-02T08:51:29.241Z,101952.13
2019-01-02T08:54:30.226Z,101957.28
2019-01-02T08:57:09.813Z,101954.66
2019-01-02T09:00:16.613Z,101967.55
2019-01-02T09:03:03.073Z,101960.66
2019-01-02T09:06:00.312Z,101962.08
2019-01-02T09:08:58.520Z,101971.91
2019-01-02T09:11:36.910Z,101980.59
2019-01-02T09:14:29.059Z,101986.72
2019-01-02T09:17:26.500Z,101982.47
2019-01-02T09:20:14.045Z,101987.62
2019-01-02T09:23:14.964Z,101990.10
2019-01-02T09:25:57.724Z,101995.33
2019-01-02T09:28:37.339Z,101993.54
2019-01-02T09:31:39.100Z,101993.38
2019-01-02T09:34:31.006Z,101992.09
2019-01-02T09:37:11.796Z,102002.78
2019-01-02T09:40:11.460Z,102002.09
2019-01-02T09:43:17.400Z,101995.58
2019-01-02T09:45:55.072Z,101999.88
2019-01-02T09:48:56.668Z,101990.08
2019-01-02T09:51:48.760Z,101990.83
2019-01-02T09:54:34.497Z,101981.52
2019-01-02T09:57:30.772Z,101988.88
2019-01-02T10:00:18.099Z,101975.87
2019-01-02T10:03:06.105Z,101972.28
2019-01-02T10:06:05.469Z,101978.52
2019-01-02T10:08:43.256Z,101991.34
2019-01-02T10:11:30.236Z,101986.36
2019-01-02T10:14:11.793Z,101981.29
2019-01-02T10:17:08.117Z,101992.72
2019-01-02T10:19:52.940Z,101986.50
2019-01-02T10:22:29.163Z,101985.75
2019-01-02T10:25:25.076Z,101990.83
2019-01-02T10:28:11.448Z,102002.16
2019-01-02T10:30:59.963Z,102001.58
2019-01-02T10:33:53.549Z,101998.57
2019-01-02T10:36:47.624Z,101994.77
2019-01-02T10:39:35.052Z,101990.38
2019-01-02T10:42:27.180Z,101984.62
2019-01-02T10:45:30.947Z,101981.34
2019-01-02T10:48:21.188Z,101979.95
2019-01-02T10:51:02.338Z,101981.31
2019-01-02T10:53:45.624Z,101973.98
2019-01-02T10:56:38.808Z,101958.25
2019-01-02T10:59:20.847Z,101941.55
2019-01-02T11:02:15.888Z,101942.02
2019-01-02T11:05:15.768Z,101954.75
2019-01-02T11:07:53.840Z,101961.05
2019-01-02T11:10:53.072Z,101959.90
2019-01-02T11:13:59.069Z,101950.75
2019-01-02T11:16:51.167Z,101951.64
2019-01-02T11:19:44.632Z,101942.48
2019-01-02T11:22:29.932Z,101966.38
2019-01-02T11:25:30.353Z,101968.02
2019-01-02T11:28:19.413Z,101963.47
2019-01-02T11:31:31.370Z,101968.17
2019-01-02T11:34:23.464Z,101979.55
2019-01-02T11:37:08.272Z,101983.47
2019-01-02T11:39:46.627Z,101979.98
2019-01-02T11:42:21.927Z,101965.42
2019-01-02T11:45:01.292Z,101962.91
2019-01-02T11:47:28.037Z,101958.91
2019-01-02T11:49:54.833Z,101957.62
2019-01-02T11:52:21.589Z,101965.18
2019-01-02T11:54:48.355Z,101966.95
2019-01-02T11:57:15.100Z,101954.22
2019-01-02T11:59:41.880Z,101958.28
2019-01-02T12:02:08.632Z,101952.00
2019-01-02T12:04:35.412Z,101949.29
2019-01-02T12:07:02.160Z,101947.89
2019-01-02T12:09:28.921Z,101948.59
2019-01-02T12:11:55.670Z,101939.86
2019-01-02T12:14:22.425Z,101939.48
2019-01-02T12:16:49.198Z,101942.37
2019-01-02T12:19:15.993Z,101937.75
2019-01-02T12:21:42.769Z,101933.26
2019-01-02T12:24:09.528Z,101936.68
2019-01-02T12:26:36.284Z,101933.58
2019-01-02T12:29:03.049Z,101928.85
2019-01-02T12:31:29.897Z,101930.95
2019-01-02T12:33:56.712Z,101935.22
2019-01-02T12:36:23.488Z,101926.60
2019-01-02T12:38:50.284Z,101939.09
2019-01-02T12:41:17.053Z,101928.31
2019-01-02T12:43:43.805Z,101929.91
2019-01-02T12:46:10.593Z,101915.81
2019-01-02T12:48:37.380Z,101919.27
2019-01-02T12:51:04.137Z,101918.28
2019-01-02T12:53:30.889Z,101921.80
2019-01-02T12:55:57.664Z,101923.00
2019-01-02T12:58:24.437Z,101942.77
2019-01-02T13:00:56.476Z,101913.06
2019-01-02T13:03:57.129Z,101926.85
2019-01-02T13:06:55.646Z,101927.27
2019-01-02T13:09:31.693Z,101918.44
2019-01-02T13:12:41.632Z,101931.28
2019-01-02T13:15:45.936Z,101942.06
2019-01-02T13:18:44.450Z,101941.25
2019-01-02T13:21:28.120Z,101946.45
2019-01-02T13:24:03.984Z,101950.62
2019-01-02T13:26:38.112Z,101940.39
2019-01-02T13:29:16.647Z,101958.84
2019-01-02T13:32:14.832Z,101968.41
2019-01-02T13:34:54.329Z,101961.91
2019-01-02T13:37:36.653Z,101957.88
2019-01-02T13:40:24.185Z,101970.64
2019-01-02T13:43:02.144Z,101981.05
2019-01-02T13:45:37.996Z,101974.38
2019-01-02T13:48:20.744Z,101974.67
2019-01-02T13:51:11.217Z,101977.80
2019-01-02T13:53:37.996Z,101981.36
2019-01-02T13:56:06.867Z,101982.27
2019-01-02T13:58:33.616Z,101995.13
2019-01-02T14:01:00.381Z,101992.31
2019-01-02T14:03:27.162Z,102000.48
2019-01-02T14:05:53.959Z,102013.09
2019-01-02T14:08:20.708Z,101989.47
2019-01-02T14:10:47.482Z,102002.95
2019-01-02T14:13:14.233Z,102011.44
2019-01-02T14:15:41.016Z,102004.75
2019-01-02T14:18:07.760Z,102001.78
2019-01-02T14:20:34.517Z,102018.98
2019-01-02T14:23:01.273Z,102014.16
2019-01-02T14:25:28.024Z,102006.33
2019-01-02T14:27:54.800Z,102012.69
2019-01-02T14:30:21.541Z,102009.82
2019-01-02T14:32:48.312Z,102018.61
2019-01-02T14:35:15.061Z,102023.91
2019-01-02T14:37:41.901Z,102027.02
2019-01-02T14:40:08.660Z,102022.30
2019-01-02T14:42:35.420Z,102027.84
2019-01-02T14:45:02.163Z,102035.44
2019-01-02T14:47:28.941Z,102006.86
2019-01-02T14:49:55.721Z,102033.83
2019-01-02T14:52:22.500Z,102028.04
2019-01-02T14:54:49.232Z,102040.98
2019-01-02T14:57:15.996Z,102047.87
2019-01-02T14:59:42.849Z,102040.73
2019-01-02T15:02:09.625Z,102052.89
2019-01-02T15:04:36.376Z,102056.58
2019-01-02T15:07:03.143Z,102056.27
2019-01-02T15:09:29.929Z,102062.00
2019-01-02T15:11:56.692Z,102071.48
2019-01-02T15:14:23.480Z,102072.98
2019-01-02T15:16:50.245Z,102085.83
2019-01-02T15:19:17.047Z,102081.34
2019-01-02T15:21:43.795Z,102084.30
2019-01-02T15:24:10.532Z,102085.50
2019-01-02T15:26:37.301Z,102081.20
2019-01-02T15:29:04.413Z,102087.21
2019-01-02T15:31:31.220Z,102094.84
2019-01-02T15:33:58.020Z,102098.19
2019-01-02T15:36:24.781Z,102096.45
2019-01-02T15:38:51.520Z,102101.16
2019-01-02T15:41:18.275Z,102105.31
2019-01-02T15:43:45.047Z,102105.74
2019-01-02T15:46:11.812Z,102116.41
2019-01-02T15:48:38.544Z,102117.88
2019-01-02T15:51:05.342Z,102116.49
2019-01-02T15:53:32.085Z,102122.08
2019-01-02T15:55:58.848Z,102123.07
2019-01-02T15:58:25.576Z,102136.17
2019-01-02T16:00:52.672Z,102131.87
2019-01-02T16:03:19.416Z,102139.23
2019-01-02T16:05:46.170Z,102133.52
2019-01-02T16:08:12.922Z,102144.55
2019-01-02T16:10:39.656Z,102146.65
2019-01-02T16:13:06.416Z,102150.33
2019-01-02T16:15:33.181Z,102150.06
2019-01-02T16:17:59.952Z,102151.00
2019-01-02T16:20:26.705Z,102158.63
2019-01-02T16:22:53.473Z,102153.19
2019-01-02T16:25:20.208Z,102158.17
2019-01-02T16:27:47.693Z,102156.84
2019-01-02T16:30:13.832Z,102157.73
2019-01-02T16:32:40.588Z,102162.96
2019-01-02T16:35:07.435Z,102164.45
2019-01-02T16:37:34.177Z,102163.75
2019-01-02T16:40:00.949Z,102169.98
2019-01-02T16:42:27.708Z,102173.13
2019-01-02T16:44:54.500Z,102180.52
2019-01-02T16:47:21.273Z,102181.42
2019-01-02T16:49:48.008Z,102174.41
2019-01-02T16:52:14.821Z,102182.11
2019-01-02T16:54:41.592Z,102189.62
2019-01-02T16:57:08.345Z,102185.98
2019-01-02T16:59:35.100Z,102192.23
2019-01-02T17:02:01.913Z,102192.25
2019-01-02T17:04:28.669Z,102197.77
2019-01-02T17:06:55.513Z,102206.02
2019-01-02T17:09:22.248Z,102199.09
2019-01-02T17:11:49.020Z,102197.67
2019-01-02T17:14:15.760Z,102203.40
2019-01-02T17:16:42.504Z,102196.41
2019-01-02T17:19:09.308Z,102206.08
2019-01-02T17:21:36.072Z,102204.80
2019-01-02T17:24:02.836Z,102214.36
2019-01-02T17:26:29.570Z,102212.19
2019-01-02T17:28:56.348Z,102215.27
2019-01-02T17:31:23.104Z,102215.02
2019-01-02T17:33:49.860Z,102215.02
2019-01-02T17:36:16.613Z,102212.61
2019-01-02T17:38:43.365Z,102214.05
2019-01-02T17:41:10.149Z,102208.73
2019-01-02T17:43:37.050Z,102216.43
2019-01-02T17:46:03.838Z,102207.20
2019-01-02T17:48:30.613Z,102213.56
2019-01-02T17:50:57.364Z,102220.81
2019-01-02T17:53:24.120Z,102211.39
2019-01-02T17:55:50.917Z,102221.10
2019-01-02T17:58:17.699Z,102218.81
2019-01-02T18:00:44.482Z,102228.16
2019-01-02T18:03:11.284Z,102221.98
2019-01-02T18:05:38.077Z,102227.31
2019-01-02T18:08:04.844Z,102229.13
2019-01-02T18:10:31.627Z,102232.66
2019-01-02T18:12:59.917Z,102230.64
2019-01-02T18:15:26.661Z,102226.92
2019-01-02T18:17:53.516Z,102238.20
2019-01-02T18:20:20.283Z,102233.55
2019-01-02T18:22:47.032Z,102244.61
2019-01-02T18:25:13.805Z,102238.34
2019-01-02T18:27:40.564Z,102241.79
2019-01-02T18:30:09.645Z,102239.84
2019-01-02T18:32:36.404Z,102235.86
2019-01-02T18:35:03.420Z,102237.75
2019-01-02T18:37:30.185Z,102250.22
2019-01-02T18:39:56.964Z,102251.34
2019-01-02T18:42:23.720Z,102251.41
2019-01-02T18:44:50.506Z,102257.75
2019-01-02T18:47:17.252Z,102252.98
2019-01-02T18:49:44.020Z,102254.17
2019-01-02T18:52:10.769Z,102256.59
2019-01-02T18:54:37.565Z,102257.36
2019-01-02T18:57:04.329Z,102261.34
2019-01-02T18:59:31.186Z,102272.81
2019-01-02T19:01:57.962Z,102266.73
2019-01-02T19:04:24.756Z,102273.21
2019-01-02T19:06:51.540Z,102270.75
2019-01-02T19:09:18.328Z,102276.81
2019-01-02T19:11:45.125Z,102273.83
2019-01-02T19:14:12.971Z,102279.31
2019-01-02T19:16:38.668Z,102279.45
2019-01-02T19:19:05.465Z,102279.58
2019-01-02T19:21:32.273Z,102285.30
2019-01-02T19:23:59.126Z,102287.81
2019-01-02T19:26:25.900Z,102284.08
2019-01-02T19:28:52.698Z,102291.98
2019-01-02T19:31:19.553Z,102293.27
2019-01-02T19:33:46.309Z,102294.61
2019-01-02T19:36:13.074Z,102304.70
2019-01-02T19:38:39.829Z,102304.10
2019-01-02T19:41:06.652Z,102304.66
2019-01-02T19:43:33.445Z,102307.47
2019-01-02T19:46:00.208Z,102310.53
2019-01-02T19:48:26.970Z,102312.36
2019-01-02T19:50:53.741Z,102310.94
2019-01-02T19:53:20.492Z,102321.11
2019-01-02T19:55:47.330Z,102321.25
2019-01-02T19:58:14.076Z,102311.50
2019-01-02T20:00:40.865Z,102310.20
2019-01-02T20:03:07.616Z,102318.49
2019-01-02T20:05:34.393Z,102312.13
2019-01-02T20:08:01.198Z,102328.33
2019-01-02T20:10:28.012Z,102325.92
2019-01-02T20:12:54.773Z,102331.98
2019-01-02T20:15:21.543Z,102330.55
2019-01-02T20:17:48.284Z,102328.52
2019-01-02T20:20:15.060Z,102332.16
2019-01-02T20:22:41.824Z,102341.44
2019-01-02T20:25:08.708Z,102331.52
2019-01-02T20:27:35.467Z,102329.63
2019-01-02T20:30:02.233Z,102331.31
2019-01-02T20:32:29.008Z,102325.79
2019-01-02T20:34:55.790Z,102336.71
2019-01-02T20:37:22.568Z,102331.37
2019-01-02T20:39:49.334Z,102328.73
2019-01-02T20:42:16.127Z,102329.77
2019-01-02T20:44:42.911Z,102325.44
2019-01-02T20:47:09.688Z,102319.44
2019-01-02T20:49:36.469Z,102317.97
2019-01-02T20:52:03.224Z,102312.44
2019-01-02T20:54:30.030Z,102316.77
2019-01-02T20:56:56.743Z,102321.75
2019-01-02T20:59:23.555Z,102324.64
2019-01-02T21:01:50.329Z,102314.36
2019-01-02T21:04:17.194Z,102312.81
2019-01-02T21:06:43.948Z,102320.84
2019-01-02T21:09:10.745Z,102315.05
2019-01-02T21:11:37.493Z,102313.08
2019-01-02T21:14:04.252Z,102315.30
2019-01-02T21:16:31.016Z,102308.08
2019-01-02T21:18:57.803Z,102315.66
2019-01-02T21:21:24.560Z,102318.20
2019-01-02T21:23:51.332Z,102320.31
2019-01-02T21:26:18.080Z,102323.38
2019-01-02T21:28:44.849Z,102329.20
2019-01-02T21:31:11.605Z,102323.34
2019-01-02T21:33:38.625Z,102329.17
2019-01-02T21:36:05.212Z,102327.80
2019-01-02T21:38:31.986Z,102324.38
2019-01-02T21:40:58.737Z,102326.98
2019-01-02T21:43:25.516Z,102328.97
2019-01-02T21:45:52.263Z,102324.45
2019-01-02T21:48:19.117Z,102332.71
2019-01-02T21:50:45.889Z,102334.70
2019-01-02T21:53:12.656Z,102329.11
2019-01-02T21:55:39.446Z,102328.47
2019-01-02T21:58:06.172Z,102332.73
2019-01-02T22:00:32.977Z,102329.05
2019-01-02T22:02:59.741Z,102330.17
2019-01-02T22:05:26.513Z,102336.91
2019-01-02T22:07:53.305Z,102344.34
2019-01-02T22:10:20.133Z,102341.84
2019-01-02T22:12:46.952Z,102343.12
2019-01-02T22:15:13.749Z,102337.86
2019-01-02T22:17:40.624Z,102343.87
2019-01-02T22:20:07.393Z,102348.45
2019-01-02T22:22:34.164Z,102353.16
2019-01-02T22:25:00.928Z,102349.45
2019-01-02T22:27:27.676Z,102346.62
2019-01-02T22:29:54.480Z,102344.58
2019-01-02T22:32:21.230Z,102343.42
2019-01-02T22:34:48.106Z,102348.89
2019-01-02T22:37:14.889Z,102342.61
2019-01-02T22:39:41.685Z,102348.64
2019-01-02T22:42:08.444Z,102348.58
2019-01-02T22:44:35.229Z,102349.46
2019-01-02T22:47:02.013Z,102351.10
2019-01-02T22:49:28.834Z,102357.38
2019-01-02T22:51:55.604Z,102361.16
2019-01-02T22:54:22.404Z,102368.74
2019-01-02T22:56:49.173Z,102361.05
2019-01-02T22:59:15.942Z,102356.22
2019-01-02T23:02:02.320Z,102364.84
2019-01-02T23:04:43.552Z,102367.71
2019-01-02T23:07:24.939Z,102362.22
2019-01-02T23:09:57.405Z,102368.02
2019-01-02T23:12:45.749Z,102372.86
2019-01-02T23:15:32.158Z,102374.68
2019-01-02T23:18:15.546Z,102388.41
2019-01-02T23:20:48.013Z,102390.72
2019-01-02T23:23:35.304Z,102393.50
2019-01-02T23:26:25.472Z,102399.40
2019-01-02T23:29:11.889Z,102405.08
2019-01-02T23:32:02.757Z,102400.28
2019-01-02T23:34:49.136Z,102403.92
2019-01-02T23:37:30.238Z,102410.30
2019-01-02T23:40:12.734Z,102417.63
2019-01-02T23:43:00.994Z,102412.73
2019-01-02T23:45:33.484Z,102425.36
2019-01-02T23:48:17.892Z,102422.80
2019-01-02T23:51:08.316Z,102426.94
2019-01-02T23:53:54.696Z,102429.95
2019-01-02T23:56:39.584Z,102430.97
2019-01-02T23:59:25.954Z,102432.23
